Glen Cove, New York
Current Conditions -  °F | °C
As of 2:51 PM on Saturday 25 Oct 2014 (Local Time) from KLGA Reporting Station
Scattered Clouds Scattered Clouds  
Wind Chill: 67°   Ceiling: Unl
Heat Index: 67°   Visibility: 10mi
Dew Point: 40°   Wind: 10mph
Humidity: 37%   Direction: 240°WSW
Pressure: 29.7"   Gusts: NA
Location:  40.86°N, 73.63°W
Report Text: KLGA 251851Z 24009KT 10SM FEW050 SCT250 19/04 A2970 RMK AO2 SLP058 T01940044
Loading
Personal Weather Stations






























Interactive Weather Map
Tropical Storm Tracking
New forecast layout! Learn more

10-Day Weather Forecast

Advertisements
Track Severe Weather on mobile